Terminal Aerodrome Forecast
Issued by NWS

Home | Current Version | Previous Version | Text Only | Print | Product List | Glossary On
Versions: 1 2 3 4 5 6 7 8 9 10 11 12 13 14 15 16
953
FTUS46 KMFR 220540
TAFLMT
TAF
KLMT 220540Z 2206/2306 30008KT P6SM SCT025 OVC080
     FM221100 VRB03KT 4SM -SHSN OVC020
     FM222000 32012G20KT P6SM -SHSN OVC035
     FM230000 33012G20KT P6SM BKN040
     FM230300 33007KT P6SM SCT040=

USA.gov is the U.S. government's official web portal to all federal, state and local government web resources and services.